createdAt,value
2018-04-02T00:00:51.313Z,23.43
2018-04-02T00:05:54.354Z,42.20
2018-04-02T00:10:57.574Z,36.10
2018-04-02T00:16:00.708Z,33.10
2018-04-02T00:21:03.809Z,28.13
2018-04-02T00:26:06.905Z,29.40
2018-04-02T00:31:09.978Z,34.37
2018-04-02T00:36:12.908Z,36.90
2018-04-02T00:41:16.304Z,43.97
2018-04-02T00:46:19.495Z,31.27
2018-04-02T00:51:22.398Z,30.93
2018-04-02T00:56:25.509Z,26.60
2018-04-02T01:01:28.780Z,37.30
2018-04-02T01:06:31.784Z,49.50
2018-04-02T01:11:35.326Z,24.20
2018-04-02T01:16:38.323Z,40.57
2018-04-02T01:21:41.827Z,41.20
2018-04-02T01:26:44.745Z,27.97
2018-04-02T01:31:49.250Z,31.90
2018-04-02T01:36:52.331Z,24.57
2018-04-02T01:41:55.498Z,33.93
2018-04-02T01:46:58.465Z,33.30
2018-04-02T01:52:01.505Z,32.30
2018-04-02T01:57:04.603Z,17.20
2018-04-02T02:02:07.782Z,19.97
2018-04-02T02:07:12.329Z,27.87
2018-04-02T02:12:15.598Z,39.30
2018-04-02T02:17:18.913Z,28.73
2018-04-02T02:22:21.985Z,27.50
2018-04-02T02:27:24.849Z,25.30
2018-04-02T02:32:27.794Z,16.73
2018-04-02T02:37:30.723Z,33.13
2018-04-02T02:42:33.890Z,21.73
2018-04-02T02:47:36.884Z,25.47
2018-04-02T02:52:40.357Z,27.20
2018-04-02T02:57:43.878Z,32.43
2018-04-02T03:02:46.842Z,27.87
2018-04-02T03:07:50.969Z,28.23
2018-04-02T03:12:54.453Z,17.13
2018-04-02T03:17:57.418Z,33.00
2018-04-02T03:23:00.325Z,26.20
2018-04-02T03:28:03.938Z,20.83
2018-04-02T03:33:07.614Z,26.13
2018-04-02T03:38:10.654Z,24.20
2018-04-02T03:43:15.504Z,22.83
2018-04-02T03:48:18.422Z,23.23
2018-04-02T03:54:24.440Z,17.93
2018-04-02T03:59:27.382Z,17.20
2018-04-02T04:04:30.460Z,21.87
2018-04-02T04:09:34.196Z,25.23
2018-04-02T04:14:37.297Z,21.60
2018-04-02T04:19:40.964Z,29.40
2018-04-02T04:24:44.165Z,25.03
2018-04-02T04:29:47.465Z,17.30
2018-04-02T04:34:50.657Z,20.20
2018-04-02T04:39:54.666Z,12.10
2018-04-02T04:44:57.647Z,24.27
2018-04-02T04:50:00.829Z,26.57
2018-04-02T04:55:03.641Z,21.63
2018-04-02T05:00:06.590Z,13.43
2018-04-02T05:05:09.573Z,13.23
2018-04-02T05:10:12.538Z,15.63
2018-04-02T05:15:15.397Z,21.00
2018-04-02T05:20:18.226Z,6.50
2018-04-02T05:25:21.035Z,13.07
2018-04-02T05:30:24.027Z,22.50
2018-04-02T05:35:26.938Z,11.97
2018-04-02T05:40:30.873Z,10.90
2018-04-02T05:45:34.286Z,26.27
2018-04-02T05:50:37.271Z,13.47
2018-04-02T05:55:40.305Z,17.60
2018-04-02T06:00:43.415Z,17.27
2018-04-02T06:05:47.090Z,5.63
2018-04-02T06:10:50.157Z,8.20
2018-04-02T06:15:53.342Z,10.13
2018-04-02T06:20:56.534Z,15.17
2018-04-02T06:25:59.509Z,13.10
2018-04-02T06:31:02.541Z,11.37
2018-04-02T06:36:06.124Z,15.93
2018-04-02T06:41:09.257Z,16.93
2018-04-02T06:52:18.944Z,13.13
2018-04-02T06:57:22.030Z,15.27
2018-04-02T07:02:26.052Z,8.87
2018-04-02T07:07:29.137Z,10.73
2018-04-02T07:12:31.924Z,14.97
2018-04-02T07:17:34.906Z,8.47
2018-04-02T07:22:37.929Z,9.23
2018-04-02T07:27:40.760Z,10.27
2018-04-02T07:32:43.960Z,11.33
2018-04-02T07:37:46.884Z,7.17
2018-04-02T07:42:49.765Z,11.37
2018-04-02T07:47:53.086Z,20.90
2018-04-02T07:52:56.298Z,11.80
2018-04-02T07:57:59.334Z,6.50
2018-04-02T08:03:02.215Z,10.83
2018-04-02T08:08:05.311Z,7.80
2018-04-02T08:13:08.258Z,8.57
2018-04-02T08:18:11.314Z,5.03
2018-04-02T08:23:14.678Z,7.43
2018-04-02T08:28:17.528Z,5.50
2018-04-02T08:33:20.309Z,5.63
2018-04-02T08:38:23.138Z,8.30
2018-04-02T08:43:26.043Z,7.97
2018-04-02T08:48:28.853Z,6.40
2018-04-02T08:53:31.814Z,14.00
2018-04-02T08:58:34.954Z,6.13
2018-04-02T09:03:38.094Z,4.20
2018-04-02T09:08:41.178Z,2.90
2018-04-02T09:13:44.018Z,5.20
2018-04-02T09:18:47.240Z,8.83
2018-04-02T09:23:50.302Z,7.57
2018-04-02T09:28:53.147Z,6.73
2018-04-02T09:33:56.071Z,2.30
2018-04-02T09:38:58.873Z,5.57
2018-04-02T09:44:01.646Z,5.00
2018-04-02T09:49:05.058Z,2.83
2018-04-02T09:54:07.932Z,5.10
2018-04-02T09:59:10.778Z,2.60
2018-04-02T10:04:13.625Z,4.70
2018-04-02T10:09:16.446Z,4.27
2018-04-02T10:14:19.450Z,3.37
2018-04-02T10:19:25.338Z,3.10
2018-04-02T10:24:28.598Z,4.10
2018-04-02T10:29:31.424Z,2.83
2018-04-02T10:34:34.534Z,7.43
2018-04-02T10:39:37.447Z,2.63
2018-04-02T10:44:40.325Z,7.30
2018-04-02T10:49:43.840Z,2.07
2018-04-02T10:54:46.681Z,5.53
2018-04-02T10:59:49.746Z,4.67
2018-04-02T11:04:53.026Z,3.03
2018-04-02T11:09:55.912Z,4.40
2018-04-02T11:14:58.829Z,4.53
2018-04-02T11:20:01.993Z,1.70
2018-04-02T11:25:05.017Z,5.70
2018-04-02T11:30:11.566Z,5.00
2018-04-02T11:35:15.238Z,3.23
2018-04-02T11:40:18.117Z,3.03
2018-04-02T11:45:20.952Z,2.13
2018-04-02T11:50:24.743Z,2.17
2018-04-02T11:55:28.276Z,2.40
2018-04-02T12:00:31.355Z,3.07
2018-04-02T12:05:35.030Z,1.90
2018-04-02T12:10:37.985Z,2.57
2018-04-02T12:15:40.926Z,5.13
2018-04-02T12:20:44.136Z,3.20
2018-04-02T12:25:47.028Z,2.90
2018-04-02T12:30:49.995Z,5.07
2018-04-02T12:35:52.906Z,3.03
2018-04-02T12:40:55.783Z,3.90
2018-04-02T12:45:59.473Z,4.33
2018-04-02T12:51:02.593Z,2.40
2018-04-02T12:56:05.595Z,5.37
2018-04-02T13:01:08.596Z,2.53
2018-04-02T13:06:11.593Z,4.53
2018-04-02T13:11:14.596Z,2.90
2018-04-02T13:16:17.564Z,2.80
2018-04-02T13:21:20.812Z,2.43
2018-04-02T13:26:23.800Z,2.87
2018-04-02T13:31:26.832Z,2.67
2018-04-02T13:36:29.820Z,7.63
2018-04-02T13:41:36.030Z,4.70
2018-04-02T13:46:39.685Z,2.00
2018-04-02T13:51:42.777Z,4.43
2018-04-02T13:56:45.802Z,4.87
2018-04-02T14:01:48.907Z,4.30
2018-04-02T14:06:51.986Z,8.73
2018-04-02T14:11:55.062Z,3.90
2018-04-02T14:16:58.118Z,2.20
2018-04-02T14:22:01.276Z,3.67
2018-04-02T14:27:05.317Z,2.70
2018-04-02T14:32:08.457Z,4.83
2018-04-02T14:37:11.476Z,2.60
2018-04-02T14:42:14.885Z,3.90
2018-04-02T14:47:17.769Z,5.63
2018-04-02T14:52:21.041Z,2.97
2018-04-02T14:57:23.922Z,2.20
2018-04-02T15:02:26.748Z,3.43
2018-04-02T15:07:29.834Z,3.33
2018-04-02T15:12:32.833Z,3.63
2018-04-02T15:17:35.886Z,4.10
2018-04-02T15:22:39.275Z,3.33
2018-04-02T15:27:42.432Z,3.17
2018-04-02T15:32:45.471Z,2.93
2018-04-02T15:37:48.663Z,1.80
2018-04-02T15:42:51.693Z,5.63
2018-04-02T15:47:54.780Z,4.00
2018-04-02T15:53:02.232Z,3.60
2018-04-02T15:58:05.916Z,3.13
2018-04-02T16:03:09.288Z,4.57
2018-04-02T16:08:13.223Z,1.90
2018-04-02T16:13:16.331Z,2.93
2018-04-02T16:18:20.064Z,2.10
2018-04-02T16:23:23.603Z,2.33
2018-04-02T16:28:27.163Z,3.00
2018-04-02T16:33:30.314Z,3.03
2018-04-02T16:38:33.464Z,3.37
2018-04-02T16:43:36.837Z,2.57
2018-04-02T16:48:40.020Z,4.17
2018-04-02T16:53:43.154Z,4.20
2018-04-02T16:58:46.616Z,3.17
2018-04-02T17:03:50.132Z,4.07
2018-04-02T17:08:53.348Z,6.33
2018-04-02T17:13:56.705Z,2.73
2018-04-02T17:18:59.941Z,4.33
2018-04-02T17:24:03.558Z,6.57
2018-04-02T17:29:06.742Z,6.10
2018-04-02T17:34:09.979Z,3.60
2018-04-02T17:39:13.673Z,3.50
2018-04-02T17:44:16.811Z,3.13
2018-04-02T17:49:20.724Z,5.47
2018-04-02T17:54:24.120Z,3.93
2018-04-02T17:59:27.304Z,4.23
2018-04-02T18:04:30.948Z,5.63
2018-04-02T18:09:34.916Z,6.57
2018-04-02T18:14:38.340Z,7.67
2018-04-02T18:19:41.520Z,5.60
2018-04-02T18:24:44.743Z,7.47
2018-04-02T18:29:47.956Z,5.23
2018-04-02T18:34:51.343Z,5.63
2018-04-02T18:39:54.680Z,3.77
2018-04-02T18:44:58.485Z,4.63
2018-04-02T18:50:01.728Z,6.10
2018-04-02T18:55:05.281Z,8.83
2018-04-02T19:00:08.434Z,3.13
2018-04-02T19:05:12.585Z,4.57
2018-04-02T19:10:16.992Z,4.90
2018-04-02T19:15:24.382Z,5.33
2018-04-02T19:20:28.276Z,7.20
2018-04-02T19:25:31.728Z,4.47
2018-04-02T19:30:36.133Z,4.07
2018-04-02T19:35:41.732Z,5.93
2018-04-02T19:40:45.033Z,4.60
2018-04-02T19:45:48.202Z,5.93
2018-04-02T19:50:51.709Z,9.73
2018-04-02T19:55:56.268Z,5.20
2018-04-02T20:00:59.402Z,7.57
2018-04-02T20:06:03.059Z,4.63
2018-04-02T20:11:06.216Z,5.03
2018-04-02T20:16:09.446Z,5.43
2018-04-02T20:21:12.592Z,6.10
2018-04-02T20:26:15.823Z,9.77
2018-04-02T20:31:19.309Z,5.17
2018-04-02T20:36:22.853Z,4.20
2018-04-02T20:41:26.066Z,5.30
2018-04-02T20:46:29.232Z,5.97
2018-04-02T20:51:32.689Z,9.50
2018-04-02T20:56:37.420Z,13.50
2018-04-02T21:01:40.561Z,11.87
2018-04-02T21:06:43.641Z,10.97
2018-04-02T21:11:51.397Z,10.23
2018-04-02T21:16:54.468Z,14.23
2018-04-02T21:21:57.577Z,14.97
2018-04-02T21:27:00.714Z,22.87
2018-04-02T21:32:03.694Z,16.70
2018-04-02T21:37:06.698Z,20.53
2018-04-02T21:42:09.997Z,16.90
2018-04-02T21:47:13.355Z,19.73
2018-04-02T21:52:16.470Z,17.87
2018-04-02T21:57:19.478Z,15.60
2018-04-02T22:02:22.461Z,17.33
2018-04-02T22:07:25.713Z,19.93
2018-04-02T22:12:28.677Z,17.30
2018-04-02T22:17:31.682Z,17.80
2018-04-02T22:22:34.553Z,17.33
2018-04-02T22:27:37.545Z,13.43
2018-04-02T22:32:40.383Z,17.90
2018-04-02T22:37:43.252Z,23.50
2018-04-02T22:42:48.208Z,16.13
2018-04-02T22:47:51.106Z,15.90
2018-04-02T22:52:53.981Z,12.60
2018-04-02T22:57:57.013Z,23.27
2018-04-02T23:02:59.863Z,21.00
2018-04-02T23:08:02.894Z,24.10
2018-04-02T23:13:05.679Z,22.97
2018-04-02T23:18:09.158Z,12.43
2018-04-02T23:23:11.989Z,11.07
2018-04-02T23:28:15.969Z,7.40
2018-04-02T23:33:19.148Z,20.13
2018-04-02T23:38:22.338Z,20.20
2018-04-02T23:43:25.422Z,12.07
2018-04-02T23:48:29.146Z,18.93
2018-04-02T23:53:32.138Z,14.63
2018-04-02T23:58:35.089Z,21.53
